createdAt,value
2019-02-17T00:02:29.228Z,69.27
2019-02-17T00:05:00.785Z,68.86
2019-02-17T00:07:33.841Z,68.63
2019-02-17T00:10:05.857Z,69.00
2019-02-17T00:12:37.500Z,68.75
2019-02-17T00:15:09.234Z,68.39
2019-02-17T00:17:41.036Z,69.01
2019-02-17T00:20:12.526Z,68.52
2019-02-17T00:22:44.099Z,68.91
2019-02-17T00:25:15.586Z,69.21
2019-02-17T00:27:47.049Z,69.31
2019-02-17T00:30:18.706Z,68.86
2019-02-17T00:32:50.396Z,68.74
2019-02-17T00:35:21.891Z,68.49
2019-02-17T00:37:53.567Z,68.52
2019-02-17T00:40:25.114Z,68.48
2019-02-17T00:42:56.569Z,68.35
2019-02-17T00:45:28.035Z,68.73
2019-02-17T00:47:59.769Z,68.68
2019-02-17T00:50:31.352Z,68.82
2019-02-17T00:53:03.086Z,68.93
2019-02-17T00:55:34.750Z,69.47
2019-02-17T00:58:06.431Z,69.75
2019-02-17T01:00:37.648Z,69.27
2019-02-17T01:03:09.460Z,69.73
2019-02-17T01:05:40.810Z,69.54
2019-02-17T01:08:12.311Z,70.04
2019-02-17T01:10:44.006Z,70.35
2019-02-17T01:13:15.567Z,70.10
2019-02-17T01:15:47.370Z,69.74
2019-02-17T01:18:19.906Z,69.47
2019-02-17T01:20:51.953Z,69.51
2019-02-17T01:23:23.565Z,69.46
2019-02-17T01:25:55.082Z,69.71
2019-02-17T01:28:26.591Z,69.37
2019-02-17T01:30:58.370Z,69.51
2019-02-17T01:33:29.711Z,69.37
2019-02-17T01:36:01.313Z,69.83
2019-02-17T01:38:33.003Z,70.01
2019-02-17T01:41:04.502Z,70.16
2019-02-17T01:43:35.991Z,70.61
2019-02-17T01:46:07.321Z,70.56
2019-02-17T01:48:38.963Z,70.46
2019-02-17T01:51:10.856Z,70.56
2019-02-17T01:53:42.092Z,70.69
2019-02-17T01:56:13.628Z,71.34
2019-02-17T01:58:45.110Z,71.28
2019-02-17T02:01:17.250Z,71.14
2019-02-17T02:03:48.730Z,71.37
2019-02-17T02:06:20.319Z,71.28
2019-02-17T02:08:52.046Z,71.13
2019-02-17T02:11:23.737Z,71.05
2019-02-17T02:13:55.303Z,71.44
2019-02-17T02:16:26.770Z,71.33
2019-02-17T02:18:58.357Z,70.83
2019-02-17T02:21:29.845Z,70.90
2019-02-17T02:24:01.373Z,71.23
2019-02-17T02:26:32.632Z,70.99
2019-02-17T02:29:04.055Z,71.28
2019-02-17T02:31:35.862Z,71.14
2019-02-17T02:34:07.415Z,71.20
2019-02-17T02:36:39.060Z,71.25
2019-02-17T02:39:10.615Z,71.24
2019-02-17T02:41:42.074Z,71.34
2019-02-17T02:44:13.349Z,71.51
2019-02-17T02:46:44.725Z,71.71
2019-02-17T02:49:16.073Z,71.76
2019-02-17T02:51:47.332Z,72.25
2019-02-17T02:54:18.884Z,72.86
2019-02-17T02:56:50.180Z,72.85
2019-02-17T02:59:21.435Z,73.22
2019-02-17T03:01:52.757Z,73.26
2019-02-17T03:04:23.993Z,73.17
2019-02-17T03:07:00.691Z,73.12
2019-02-17T03:09:32.126Z,73.53
2019-02-17T03:12:03.952Z,73.50
2019-02-17T03:14:35.554Z,73.62
2019-02-17T03:17:07.125Z,74.15
2019-02-17T03:19:38.386Z,74.02
2019-02-17T03:22:10.804Z,74.20
2019-02-17T03:24:42.247Z,73.74
2019-02-17T03:27:13.852Z,73.92
2019-02-17T03:29:45.482Z,73.85
2019-02-17T03:32:17.947Z,74.14
2019-02-17T03:34:49.666Z,73.85
2019-02-17T03:37:21.667Z,73.82
2019-02-17T03:39:53.344Z,73.98
2019-02-17T03:42:25.039Z,74.12
2019-02-17T03:44:56.731Z,73.99
2019-02-17T03:47:28.127Z,73.69
2019-02-17T03:49:59.765Z,73.95
2019-02-17T03:52:31.423Z,73.93
2019-02-17T03:55:03.062Z,74.08
2019-02-17T03:57:34.687Z,74.08
2019-02-17T04:00:16.428Z,74.25
2019-02-17T04:02:39.798Z,74.03
2019-02-17T04:05:11.432Z,73.97
2019-02-17T04:07:43.029Z,73.81
2019-02-17T04:10:15.543Z,73.72
2019-02-17T04:12:47.222Z,73.43
2019-02-17T04:15:18.883Z,73.26
2019-02-17T04:17:50.553Z,73.12
2019-02-17T04:20:22.018Z,73.42
2019-02-17T04:22:53.546Z,73.47
2019-02-17T04:25:25.079Z,73.64
2019-02-17T04:27:56.687Z,74.21
2019-02-17T04:30:29.730Z,74.79
2019-02-17T04:33:01.530Z,75.53
2019-02-17T04:35:33.053Z,75.41
2019-02-17T04:38:04.648Z,75.70
2019-02-17T04:40:36.058Z,75.98
2019-02-17T04:43:07.685Z,75.83
2019-02-17T04:45:39.340Z,75.76
2019-02-17T04:48:11.256Z,76.02
2019-02-17T04:50:42.905Z,75.85
2019-02-17T04:53:14.406Z,75.87
2019-02-17T04:55:45.887Z,76.19
2019-02-17T04:58:17.850Z,76.48
2019-02-17T05:00:50.165Z,76.65
2019-02-17T05:03:21.740Z,76.88
2019-02-17T05:05:53.340Z,76.96
2019-02-17T05:08:24.884Z,76.90
2019-02-17T05:10:56.239Z,76.94
2019-02-17T05:13:27.802Z,77.07
2019-02-17T05:15:59.524Z,77.07
2019-02-17T05:18:30.997Z,76.89
2019-02-17T05:21:02.425Z,76.82
2019-02-17T05:23:33.706Z,76.86
2019-02-17T05:26:05.114Z,76.72
2019-02-17T05:28:36.783Z,76.84
2019-02-17T05:31:08.031Z,77.16
2019-02-17T05:33:39.543Z,77.29
2019-02-17T05:36:11.034Z,77.44
2019-02-17T05:38:42.389Z,77.41
2019-02-17T05:41:13.917Z,77.58
2019-02-17T05:43:45.722Z,77.79
2019-02-17T05:46:17.172Z,78.18
2019-02-17T05:48:50.266Z,77.85
2019-02-17T05:51:21.894Z,77.11
2019-02-17T05:53:53.244Z,76.63
2019-02-17T05:56:24.546Z,76.68
2019-02-17T05:58:55.981Z,76.36
2019-02-17T06:01:27.342Z,75.83
2019-02-17T06:03:58.723Z,75.33
2019-02-17T06:06:30.361Z,75.53
2019-02-17T06:09:01.983Z,74.94
2019-02-17T06:11:35.212Z,75.18
2019-02-17T06:14:06.803Z,74.13
2019-02-17T06:16:38.062Z,73.55
2019-02-17T06:19:09.507Z,72.24
2019-02-17T06:21:41.052Z,71.68
2019-02-17T06:24:12.607Z,71.04
2019-02-17T06:26:44.274Z,69.29
2019-02-17T06:29:16.226Z,68.50
2019-02-17T06:31:47.755Z,68.28
2019-02-17T06:34:19.441Z,68.01
2019-02-17T06:36:50.810Z,67.61
2019-02-17T06:39:23.117Z,67.40
2019-02-17T06:41:54.387Z,68.60
2019-02-17T06:44:25.776Z,68.83
2019-02-17T06:47:00.579Z,69.97
2019-02-17T06:49:32.332Z,69.69
2019-02-17T06:52:03.852Z,69.33
2019-02-17T06:54:35.481Z,68.65
2019-02-17T06:57:25.796Z,68.91
2019-02-17T07:00:31.038Z,68.16
2019-02-17T07:03:02.582Z,67.74
2019-02-17T07:05:46.569Z,68.90
2019-02-17T07:08:18.092Z,69.17
2019-02-17T07:10:49.563Z,69.62
2019-02-17T07:13:20.875Z,70.40
2019-02-17T07:15:52.605Z,70.96
2019-02-17T07:18:24.094Z,71.18
2019-02-17T07:20:55.517Z,71.96
2019-02-17T07:23:27.128Z,71.91
2019-02-17T07:25:58.769Z,70.98
2019-02-17T07:28:30.203Z,71.61
2019-02-17T07:31:01.751Z,70.49
2019-02-17T07:33:33.341Z,71.12
2019-02-17T07:36:05.072Z,71.31
2019-02-17T07:38:36.447Z,69.83
2019-02-17T07:41:08.028Z,68.52
2019-02-17T07:43:39.239Z,68.59
2019-02-17T07:46:10.730Z,68.48
2019-02-17T07:48:42.318Z,67.28
2019-02-17T07:51:13.904Z,67.04
2019-02-17T07:53:45.454Z,66.50
2019-02-17T07:56:17.095Z,67.85
2019-02-17T07:58:48.487Z,67.94
2019-02-17T08:01:19.982Z,66.65
2019-02-17T08:03:51.563Z,65.63
2019-02-17T08:06:23.145Z,64.17
2019-02-17T08:08:54.578Z,63.62
2019-02-17T08:11:26.162Z,63.93
2019-02-17T08:13:57.503Z,64.05
2019-02-17T08:16:28.795Z,62.68
2019-02-17T08:19:00.307Z,62.67
2019-02-17T08:21:31.512Z,63.70
2019-02-17T08:24:02.775Z,62.77
2019-02-17T08:26:34.159Z,61.28
2019-02-17T08:29:05.932Z,61.40
2019-02-17T08:31:37.168Z,61.15
2019-02-17T08:34:08.468Z,60.94
2019-02-17T08:36:39.795Z,61.25
2019-02-17T08:39:11.021Z,60.75
2019-02-17T08:41:42.241Z,60.48
2019-02-17T08:44:13.676Z,59.81
2019-02-17T08:46:45.222Z,57.58
2019-02-17T08:49:16.568Z,57.93
2019-02-17T08:51:48.005Z,57.59
2019-02-17T08:54:19.197Z,58.24
2019-02-17T08:56:50.797Z,57.71
2019-02-17T08:59:22.083Z,57.32
2019-02-17T09:01:53.300Z,57.95
2019-02-17T09:04:24.558Z,57.57
2019-02-17T09:06:56.159Z,56.59
2019-02-17T09:09:28.186Z,56.65
2019-02-17T09:11:59.521Z,55.92
2019-02-17T09:14:31.123Z,55.08
2019-02-17T09:17:02.631Z,55.30
2019-02-17T09:19:34.024Z,55.07
2019-02-17T09:22:05.578Z,55.14
2019-02-17T09:24:37.227Z,55.40
2019-02-17T09:27:08.614Z,53.91
2019-02-17T09:29:40.008Z,53.10
2019-02-17T09:32:16.247Z,53.98
2019-02-17T09:34:44.276Z,53.27
2019-02-17T09:37:15.922Z,53.54
2019-02-17T09:39:47.264Z,52.64
2019-02-17T09:42:18.645Z,53.58
2019-02-17T09:44:49.857Z,51.76
2019-02-17T09:47:21.273Z,52.62
2019-02-17T09:49:52.792Z,51.11
2019-02-17T09:52:24.043Z,50.97
2019-02-17T09:54:55.097Z,51.54
2019-02-17T09:57:26.568Z,51.17
2019-02-17T09:59:57.526Z,51.78
2019-02-17T10:02:28.745Z,51.43
2019-02-17T10:04:59.797Z,50.09
2019-02-17T10:07:30.799Z,49.79
2019-02-17T10:10:01.750Z,50.09
2019-02-17T10:12:32.754Z,50.09
2019-02-17T10:15:03.806Z,49.04
2019-02-17T10:17:34.950Z,48.08
2019-02-17T10:20:06.702Z,48.57
2019-02-17T10:22:37.883Z,48.72
2019-02-17T10:25:09.498Z,47.95
2019-02-17T10:27:40.906Z,48.17
2019-02-17T10:30:14.080Z,47.56
2019-02-17T10:32:45.440Z,47.26
2019-02-17T10:35:17.762Z,46.56
2019-02-17T10:37:50.255Z,47.19
2019-02-17T10:40:21.486Z,45.77
2019-02-17T10:42:52.672Z,46.56
2019-02-17T10:45:24.071Z,45.91
2019-02-17T10:47:55.100Z,45.39
2019-02-17T10:50:26.475Z,44.74
2019-02-17T10:52:58.016Z,45.36
2019-02-17T10:55:29.380Z,46.81
2019-02-17T10:58:00.814Z,46.40
2019-02-17T11:00:31.858Z,46.31
2019-02-17T11:03:08.695Z,44.90
2019-02-17T11:05:39.883Z,45.82
2019-02-17T11:08:10.955Z,44.89
2019-02-17T11:10:42.161Z,45.13
2019-02-17T11:13:13.626Z,44.37
2019-02-17T11:15:44.902Z,43.94
2019-02-17T11:18:16.134Z,43.87
2019-02-17T11:20:47.356Z,42.88
2019-02-17T11:23:18.408Z,42.32
2019-02-17T11:25:49.940Z,42.32
2019-02-17T11:28:21.229Z,42.81
2019-02-17T11:30:52.280Z,41.76
2019-02-17T11:33:23.591Z,42.90
2019-02-17T11:35:55.091Z,43.49
2019-02-17T11:38:26.197Z,42.63
2019-02-17T11:40:57.682Z,42.63
2019-02-17T11:43:28.671Z,41.85
2019-02-17T11:45:59.994Z,41.24
2019-02-17T11:48:31.108Z,41.24
2019-02-17T11:51:02.338Z,39.77
2019-02-17T11:53:33.765Z,39.77
2019-02-17T11:56:05.105Z,40.41
2019-02-17T11:58:36.245Z,39.76
2019-02-17T12:01:07.598Z,39.38
2019-02-17T12:03:39.301Z,38.99
2019-02-17T12:06:10.917Z,39.48
2019-02-17T12:08:48.764Z,39.48
2019-02-17T12:11:20.331Z,39.42
2019-02-17T12:13:51.521Z,37.62
2019-02-17T12:16:23.029Z,38.27
2019-02-17T12:18:54.464Z,38.37
2019-02-17T12:21:47.554Z,38.60
2019-02-17T12:24:21.972Z,39.18
2019-02-17T12:27:03.946Z,39.15
2019-02-17T12:29:38.514Z,37.31
2019-02-17T12:32:10.094Z,36.93
2019-02-17T12:34:41.132Z,36.91
2019-02-17T12:37:12.464Z,36.56
2019-02-17T12:39:43.701Z,37.80
2019-02-17T12:42:14.979Z,37.80
2019-02-17T12:44:46.235Z,38.29
2019-02-17T12:47:17.605Z,37.67
2019-02-17T12:49:48.865Z,36.85
2019-02-17T12:52:20.206Z,37.95
2019-02-17T12:54:51.426Z,38.10
2019-02-17T12:57:22.495Z,36.16
2019-02-17T12:59:53.427Z,35.99
2019-02-17T13:02:24.492Z,37.47
2019-02-17T13:04:55.599Z,37.87
2019-02-17T13:07:26.744Z,37.91
2019-02-17T13:09:58.030Z,37.20
2019-02-17T13:12:29.312Z,36.84
2019-02-17T13:15:00.611Z,35.76
2019-02-17T13:17:32.155Z,36.03
2019-02-17T13:20:03.086Z,35.96
2019-02-17T13:22:34.387Z,36.53
2019-02-17T13:25:05.952Z,36.36
2019-02-17T13:27:37.150Z,36.69
2019-02-17T13:30:14.406Z,36.50
2019-02-17T13:32:45.675Z,37.19
2019-02-17T13:35:17.028Z,37.25
2019-02-17T13:37:48.174Z,37.89
2019-02-17T13:40:19.546Z,37.28
2019-02-17T13:42:50.789Z,37.54
2019-02-17T13:45:21.951Z,37.74
2019-02-17T13:47:53.291Z,37.47
2019-02-17T13:50:24.499Z,36.53
2019-02-17T13:52:55.852Z,36.64
2019-02-17T13:55:27.183Z,36.64
2019-02-17T13:57:58.618Z,36.49
2019-02-17T14:00:30.603Z,36.52
2019-02-17T14:03:04.424Z,36.92
2019-02-17T14:05:35.513Z,36.92
2019-02-17T14:08:07.015Z,36.84
2019-02-17T14:10:38.476Z,36.74
2019-02-17T14:13:09.713Z,37.39
2019-02-17T14:15:40.979Z,37.39
2019-02-17T14:18:11.954Z,36.20
2019-02-17T14:20:43.367Z,36.20
2019-02-17T14:23:14.517Z,35.67
2019-02-17T14:25:45.624Z,35.04
2019-02-17T14:28:16.571Z,35.52
2019-02-17T14:30:47.617Z,36.16
2019-02-17T14:33:18.683Z,35.87
2019-02-17T14:35:49.978Z,35.50
2019-02-17T14:38:21.353Z,35.88
2019-02-17T14:40:52.587Z,35.78
2019-02-17T14:43:24.145Z,35.78
2019-02-17T14:45:55.509Z,35.92
2019-02-17T14:48:26.966Z,35.94
2019-02-17T14:50:58.096Z,35.75
2019-02-17T14:53:29.435Z,35.75
2019-02-17T14:56:00.755Z,36.35
2019-02-17T14:58:32.034Z,36.35
2019-02-17T15:01:03.177Z,37.00
2019-02-17T15:03:35.329Z,37.60
2019-02-17T15:06:06.902Z,37.66
2019-02-17T15:08:38.007Z,38.52
2019-02-17T15:11:09.582Z,39.08
2019-02-17T15:13:40.867Z,39.79
2019-02-17T15:16:11.976Z,40.69
2019-02-17T15:18:43.023Z,41.06
2019-02-17T15:21:14.064Z,41.66
2019-02-17T15:23:45.053Z,42.04
2019-02-17T15:26:16.143Z,42.54
2019-02-17T15:28:50.908Z,42.71
2019-02-17T15:31:20.237Z,42.79
2019-02-17T15:33:51.522Z,44.21
2019-02-17T15:36:22.802Z,43.60
2019-02-17T15:38:54.010Z,44.21
2019-02-17T15:41:25.387Z,43.64
2019-02-17T15:43:56.542Z,43.65
2019-02-17T15:46:27.623Z,43.32
2019-02-17T15:48:58.928Z,44.71
2019-02-17T15:51:30.022Z,44.08
2019-02-17T15:54:01.271Z,43.45
2019-02-17T15:56:32.546Z,44.24
2019-02-17T15:59:03.525Z,44.35
2019-02-17T16:01:34.609Z,44.43
2019-02-17T16:04:05.922Z,44.39
2019-02-17T16:06:36.988Z,44.88
2019-02-17T16:09:09.191Z,44.85
2019-02-17T16:11:40.681Z,45.50
2019-02-17T16:14:11.754Z,45.33
2019-02-17T16:16:43.064Z,45.64
2019-02-17T16:19:14.123Z,45.73
2019-02-17T16:21:45.113Z,45.29
2019-02-17T16:24:16.126Z,46.19
2019-02-17T16:26:47.109Z,46.63
2019-02-17T16:29:18.151Z,47.05
2019-02-17T16:31:49.106Z,47.33
2019-02-17T16:34:20.423Z,47.31
2019-02-17T16:36:51.447Z,47.76
2019-02-17T16:39:22.985Z,47.55
2019-02-17T16:41:53.899Z,47.71
2019-02-17T16:44:25.593Z,48.33
2019-02-17T16:46:57.140Z,48.12
2019-02-17T16:49:28.192Z,49.02
2019-02-17T16:51:59.814Z,49.37
2019-02-17T16:54:31.116Z,49.19
2019-02-17T16:57:02.458Z,49.55
2019-02-17T16:59:33.989Z,49.36
2019-02-17T17:02:05.656Z,49.96
2019-02-17T17:04:37.189Z,50.29
2019-02-17T17:07:08.674Z,50.31
2019-02-17T17:09:39.906Z,50.59
2019-02-17T17:12:11.549Z,51.22
2019-02-17T17:14:43.036Z,51.73
2019-02-17T17:17:14.565Z,51.36
2019-02-17T17:19:46.119Z,52.11
2019-02-17T17:22:17.759Z,52.35
2019-02-17T17:24:49.544Z,52.79
2019-02-17T17:27:20.977Z,52.56
2019-02-17T17:29:52.574Z,52.96
2019-02-17T17:32:24.160Z,53.39
2019-02-17T17:34:58.985Z,53.59
2019-02-17T17:37:28.402Z,53.62
2019-02-17T17:40:00.717Z,53.81
2019-02-17T17:42:32.073Z,53.53
2019-02-17T17:45:03.384Z,54.08
2019-02-17T17:47:35.342Z,54.10
2019-02-17T17:50:07.718Z,54.21
2019-02-17T17:52:39.273Z,54.07
2019-02-17T17:55:10.942Z,54.42
2019-02-17T17:57:42.555Z,54.56
2019-02-17T18:00:16.800Z,54.44
2019-02-17T18:02:48.434Z,55.15
2019-02-17T18:05:20.169Z,55.00
2019-02-17T18:07:51.575Z,54.59
2019-02-17T18:10:22.808Z,54.69
2019-02-17T18:12:54.510Z,54.94
2019-02-17T18:15:26.083Z,55.48
2019-02-17T18:17:57.850Z,55.19
2019-02-17T18:20:29.592Z,55.09
2019-02-17T18:23:01.202Z,55.15
2019-02-17T18:25:32.754Z,55.68
2019-02-17T18:28:04.432Z,55.68
2019-02-17T18:30:35.746Z,55.51
2019-02-17T18:33:07.445Z,55.47
2019-02-17T18:35:39.161Z,55.03
2019-02-17T18:38:10.889Z,55.02
2019-02-17T18:40:45.072Z,55.74
2019-02-17T18:43:15.525Z,55.70
2019-02-17T18:45:47.171Z,55.93
2019-02-17T18:48:18.426Z,55.73
2019-02-17T18:50:58.728Z,55.69
2019-02-17T18:53:22.825Z,55.83
2019-02-17T18:55:54.295Z,56.36
2019-02-17T18:58:26.614Z,56.27
2019-02-17T19:00:57.873Z,56.48
2019-02-17T19:03:29.689Z,56.44
2019-02-17T19:06:01.451Z,56.17
2019-02-17T19:08:32.990Z,55.82
2019-02-17T19:11:04.756Z,55.61
2019-02-17T19:13:36.365Z,56.02
2019-02-17T19:16:07.832Z,56.18
2019-02-17T19:18:40.126Z,55.66
2019-02-17T19:21:11.629Z,55.65
2019-02-17T19:23:43.012Z,55.73
2019-02-17T19:26:14.800Z,56.00
2019-02-17T19:28:46.462Z,55.86
2019-02-17T19:31:18.254Z,56.23
2019-02-17T19:33:49.999Z,56.17
2019-02-17T19:36:21.556Z,56.12
2019-02-17T19:38:53.225Z,56.05
2019-02-17T19:41:24.810Z,56.01
2019-02-17T19:43:56.182Z,55.84
2019-02-17T19:46:27.801Z,56.03
2019-02-17T19:48:59.204Z,56.51
2019-02-17T19:51:30.451Z,56.61
2019-02-17T19:54:02.229Z,56.46
2019-02-17T19:56:33.460Z,56.25
2019-02-17T19:59:04.778Z,56.71
2019-02-17T20:01:36.279Z,56.60
2019-02-17T20:04:17.191Z,57.14
2019-02-17T20:06:49.058Z,56.48
2019-02-17T20:09:20.566Z,56.17
2019-02-17T20:11:52.413Z,56.18
2019-02-17T20:14:23.806Z,56.54
2019-02-17T20:16:55.216Z,56.38
2019-02-17T20:19:26.880Z,56.42
2019-02-17T20:21:58.225Z,56.85
2019-02-17T20:24:29.447Z,56.99
2019-02-17T20:27:00.693Z,56.80
2019-02-17T20:29:32.114Z,56.99
2019-02-17T20:32:03.650Z,56.92
2019-02-17T20:34:35.017Z,56.80
2019-02-17T20:37:06.448Z,56.70
2019-02-17T20:39:38.034Z,56.75
2019-02-17T20:42:09.334Z,56.33
2019-02-17T20:44:40.808Z,56.51
2019-02-17T20:47:12.395Z,56.66
2019-02-17T20:49:43.883Z,56.88
2019-02-17T20:52:15.372Z,56.83
2019-02-17T20:54:46.808Z,56.85
2019-02-17T20:57:19.127Z,56.92
2019-02-17T20:59:50.318Z,56.55
2019-02-17T21:02:21.783Z,56.25
2019-02-17T21:04:53.271Z,56.01
2019-02-17T21:07:24.698Z,56.31
2019-02-17T21:09:56.155Z,56.17
2019-02-17T21:12:27.642Z,56.14
2019-02-17T21:14:59.157Z,56.22
2019-02-17T21:17:30.628Z,56.17
2019-02-17T21:20:02.453Z,55.87
2019-02-17T21:22:34.123Z,55.74
2019-02-17T21:25:06.304Z,55.53
2019-02-17T21:27:37.836Z,55.42
2019-02-17T21:30:09.405Z,55.34
2019-02-17T21:32:41.035Z,55.79
2019-02-17T21:35:13.366Z,55.67
2019-02-17T21:37:44.986Z,55.97
2019-02-17T21:40:16.670Z,55.86
2019-02-17T21:42:48.441Z,56.09
2019-02-17T21:45:19.990Z,56.18
2019-02-17T21:47:51.358Z,56.46
2019-02-17T21:50:22.735Z,56.29
2019-02-17T21:52:54.198Z,56.28
2019-02-17T21:55:25.420Z,56.58
2019-02-17T21:57:56.871Z,57.05
2019-02-17T22:00:28.414Z,56.43
2019-02-17T22:02:59.842Z,56.61
2019-02-17T22:05:31.261Z,56.92
2019-02-17T22:08:02.683Z,57.44
2019-02-17T22:10:34.218Z,57.30
2019-02-17T22:13:05.827Z,56.89
2019-02-17T22:15:37.332Z,57.31
2019-02-17T22:18:08.864Z,57.20
2019-02-17T22:20:40.529Z,57.05
2019-02-17T22:23:12.147Z,57.46
2019-02-17T22:25:43.748Z,56.96
2019-02-17T22:28:15.099Z,56.85
2019-02-17T22:30:46.557Z,56.96
2019-02-17T22:33:18.140Z,57.18
2019-02-17T22:35:49.618Z,57.36
2019-02-17T22:38:21.166Z,57.94
2019-02-17T22:40:52.710Z,57.47
2019-02-17T22:43:24.300Z,58.10
2019-02-17T22:45:55.669Z,58.85
2019-02-17T22:48:27.253Z,59.15
2019-02-17T22:50:58.877Z,59.69
2019-02-17T22:53:30.124Z,60.05
2019-02-17T22:56:01.772Z,60.77
2019-02-17T22:58:33.126Z,61.27
2019-02-17T23:01:07.817Z,61.96
2019-02-17T23:03:40.714Z,62.69
2019-02-17T23:06:12.161Z,63.45
2019-02-17T23:08:43.657Z,64.25
2019-02-17T23:11:14.984Z,64.53
2019-02-17T23:13:46.540Z,64.80
2019-02-17T23:16:18.111Z,65.11
2019-02-17T23:18:49.840Z,65.14
2019-02-17T23:21:21.232Z,65.38
2019-02-17T23:23:52.775Z,65.54
2019-02-17T23:26:24.410Z,65.91
2019-02-17T23:28:55.856Z,66.17
2019-02-17T23:31:27.081Z,65.91
2019-02-17T23:33:58.572Z,66.23
2019-02-17T23:36:30.079Z,66.54
2019-02-17T23:39:01.839Z,66.66
2019-02-17T23:41:34.794Z,66.80
2019-02-17T23:44:06.237Z,66.70
2019-02-17T23:46:37.773Z,66.63
2019-02-17T23:49:09.437Z,66.35
2019-02-17T23:51:40.962Z,66.34
2019-02-17T23:54:12.293Z,66.35
2019-02-17T23:56:43.873Z,66.32
2019-02-17T23:59:16.370Z,66.46
